Time;durP1;ratioP1;P1;durP2;ratioP2;P2;SDS_P1;SDS_P2;PMS_P1;PMS_P2;Temp;Humidity;BMP_temperature;BMP_pressure;BME280_temperature;BME280_humidity;BME280_pressure;Samples;Min_cycle;Max_cycle;Signal;HPM_P1;HPM_P2
2021/03/10 00:01:53;;;;;;;22.90;12.60;;;5.70;1.00;;;;;;5134191;27;20183;-65
2021/03/10 00:04:19;;;;;;;21.40;13.80;;;5.90;1.00;;;;;;5122741;27;20192;-62
2021/03/10 00:06:44;;;;;;;21.40;13.43;;;5.70;1.00;;;;;;5130102;27;20184;-62
2021/03/10 00:09:10;;;;;;;21.63;12.87;;;5.90;1.00;;;;;;5114609;27;20226;-63
2021/03/10 00:11:35;;;;;;;19.20;12.87;;;5.80;1.00;;;;;;5124407;27;20221;-62
2021/03/10 00:14:01;;;;;;;20.53;13.43;;;5.90;1.00;;;;;;5134784;27;20194;-63
2021/03/10 00:16:26;;;;;;;15.97;11.13;;;5.80;1.00;;;;;;5135106;27;20234;-63
2021/03/10 00:18:52;;;;;;;18.43;12.50;;;5.60;1.00;;;;;;5135041;27;20564;-63
2021/03/10 00:21:18;;;;;;;15.70;12.00;;;5.70;1.00;;;;;;5115360;27;20513;-61
2021/03/10 00:23:44;;;;;;;19.80;12.88;;;5.60;1.00;;;;;;5114469;28;20656;-64
2021/03/10 00:26:09;;;;;;;16.50;12.00;;;5.60;1.00;;;;;;5114654;28;20184;-63
2021/03/10 00:28:35;;;;;;;19.77;12.30;;;5.80;1.00;;;;;;5114562;28;20203;-63
2021/03/10 00:31:00;;;;;;;17.83;11.97;;;5.80;1.00;;;;;;5114567;28;20180;-64
2021/03/10 00:33:26;;;;;;;19.80;12.70;;;5.70;1.00;;;;;;5114363;28;20183;-64
2021/03/10 00:35:51;;;;;;;16.53;11.50;;;5.50;1.00;;;;;;5114472;28;20199;-67
2021/03/10 00:38:17;;;;;;;17.60;11.70;;;5.70;1.00;;;;;;5133699;27;20198;-62
2021/03/10 00:40:42;;;;;;;12.83;10.30;;;5.70;1.00;;;;;;5134991;27;20187;-63
2021/03/10 00:43:08;;;;;;;18.97;11.73;;;5.80;1.00;;;;;;5134420;27;20179;-69
2021/03/10 00:45:33;;;;;;;18.43;10.53;;;5.70;1.00;;;;;;5136055;27;20205;-71
2021/03/10 00:47:59;;;;;;;22.30;12.47;;;5.60;1.00;;;;;;5134061;28;20251;-63
2021/03/10 00:50:27;;;;;;;20.17;12.00;;;5.60;1.00;;;;;;5134800;27;20225;-64
2021/03/10 00:52:53;;;;;;;22.48;13.30;;;5.70;1.00;;;;;;5134525;27;20212;-62
2021/03/10 00:55:19;;;;;;;18.33;12.18;;;5.80;1.00;;;;;;5134365;27;20171;-65
2021/03/10 00:57:44;;;;;;;15.63;11.37;;;5.90;1.00;;;;;;5133719;28;20175;-70
2021/03/10 01:00:11;;;;;;;18.77;12.00;;;5.70;1.00;;;;;;5135006;27;20180;-69
2021/03/10 01:02:37;;;;;;;18.35;13.00;;;5.50;1.00;;;;;;5133650;28;20190;-68
2021/03/10 01:05:04;;;;;;;19.33;13.60;;;5.40;1.00;;;;;;5134295;27;20205;-65
2021/03/10 01:07:30;;;;;;;19.70;12.23;;;5.30;1.00;;;;;;5135628;27;20230;-66
2021/03/10 01:09:55;;;;;;;19.43;11.37;;;5.10;1.00;;;;;;5139202;27;20642;-66
2021/03/10 01:12:21;;;;;;;17.13;11.40;;;5.00;1.00;;;;;;5120388;27;20183;-66
2021/03/10 01:14:46;;;;;;;16.90;11.47;;;5.00;1.00;;;;;;5118522;28;20224;-66
2021/03/10 01:17:12;;;;;;;19.30;11.87;;;5.00;1.00;;;;;;5118791;28;20508;-65
2021/03/10 01:19:38;;;;;;;20.43;12.33;;;4.90;1.00;;;;;;5119625;28;20248;-65
2021/03/10 01:22:03;;;;;;;17.23;10.40;;;4.90;1.00;;;;;;5119177;28;20183;-64
2021/03/10 01:24:29;;;;;;;17.70;12.33;;;4.90;1.00;;;;;;5118477;28;20183;-65
2021/03/10 01:26:54;;;;;;;20.23;12.17;;;4.80;1.00;;;;;;5118888;28;20254;-67
2021/03/10 01:29:23;;;;;;;19.70;12.63;;;4.80;1.00;;;;;;5118575;27;20199;-66
2021/03/10 01:31:49;;;;;;;17.20;11.27;;;4.80;1.00;;;;;;5119171;28;20172;-65
2021/03/10 01:34:14;;;;;;;18.70;12.20;;;4.80;1.00;;;;;;5100977;28;20224;-66
2021/03/10 01:36:40;;;;;;;16.70;10.80;;;4.80;1.00;;;;;;5117187;28;20175;-65
2021/03/10 01:39:05;;;;;;;18.00;12.77;;;4.90;1.00;;;;;;5118082;28;20646;-66
2021/03/10 01:41:31;;;;;;;19.20;12.73;;;4.90;1.00;;;;;;5118549;28;20274;-66
2021/03/10 01:43:57;;;;;;;18.30;11.20;;;4.80;1.00;;;;;;5118270;28;20229;-66
2021/03/10 01:46:24;;;;;;;19.10;12.00;;;4.80;1.00;;;;;;5118156;28;20218;-70
2021/03/10 01:48:50;;;;;;;17.13;11.90;;;4.90;1.00;;;;;;5117975;27;20662;-69
2021/03/10 01:51:18;;;;;;;22.77;11.20;;;4.90;1.00;;;;;;5117806;27;20248;-64
2021/03/10 01:53:43;;;;;;;19.88;12.00;;;5.00;1.00;;;;;;5117400;27;20181;-64
2021/03/10 01:56:09;;;;;;;17.73;11.40;;;5.10;1.00;;;;;;5117775;28;20176;-63
2021/03/10 01:58:35;;;;;;;17.00;11.83;;;5.10;1.00;;;;;;5128701;27;20186;-62
2021/03/10 02:01:00;;;;;;;18.73;11.23;;;4.80;1.00;;;;;;5137619;27;20175;-63
2021/03/10 02:03:26;;;;;;;17.10;11.50;;;5.00;1.00;;;;;;5136947;27;20196;-62
2021/03/10 02:05:52;;;;;;;24.13;12.70;;;4.90;1.00;;;;;;5136905;27;20247;-63
2021/03/10 02:08:43;;;;;;;17.47;11.70;;;5.10;1.00;;;;;;5138489;27;20172;-66
2021/03/10 02:11:21;;;;;;;20.23;11.57;;;5.10;1.00;;;;;;5138509;27;20410;-65
2021/03/10 02:14:09;;;;;;;18.08;12.57;;;5.00;1.00;;;;;;5138699;27;20178;-64
2021/03/10 02:16:49;;;;;;;20.70;12.52;;;5.10;1.00;;;;;;5138469;27;20170;-65
2021/03/10 02:19:52;;;;;;;21.08;11.68;;;5.10;1.00;;;;;;5138528;27;20178;-63
2021/03/10 02:22:33;;;;;;;15.70;10.52;;;4.80;1.00;;;;;;5138709;27;20190;-63
2021/03/10 02:25:29;;;;;;;16.45;11.88;;;4.80;1.00;;;;;;5138827;27;20178;-67
2021/03/10 02:27:59;;;;;;;17.38;10.60;;;5.00;99.90;;;;;;5137946;27;20637;-63
2021/03/10 02:30:29;;;;;;;21.02;12.52;;;4.90;1.00;;;;;;5138635;27;20635;-63
2021/03/10 02:33:22;;;;;;;19.77;11.93;;;4.90;1.00;;;;;;5137852;27;20179;-65
2021/03/10 02:35:54;;;;;;;20.00;12.60;;;4.90;1.00;;;;;;5134265;27;20579;-65
2021/03/10 02:38:22;;;;;;;19.77;11.68;;;4.90;1.00;;;;;;5137494;27;20187;-65
2021/03/10 02:40:50;;;;;;;18.70;12.38;;;4.90;1.00;;;;;;5137597;27;20287;-65
2021/03/10 02:43:17;;;;;;;17.80;11.45;;;4.70;1.00;;;;;;5137575;27;20171;-68
2021/03/10 02:45:44;;;;;;;18.70;12.80;;;4.70;1.00;;;;;;5136812;27;20266;-63
2021/03/10 02:48:10;;;;;;;20.30;13.35;;;4.80;1.00;;;;;;5137500;27;20174;-65
2021/03/10 02:50:36;;;;;;;17.10;10.80;;;4.80;1.00;;;;;;5137611;27;20654;-65
2021/03/10 02:53:04;;;;;;;21.77;11.80;;;4.60;1.00;;;;;;5138280;27;20207;-68
2021/03/10 02:55:33;;;;;;;18.20;12.65;;;4.60;1.00;;;;;;5137762;27;20543;-66
2021/03/10 02:57:59;;;;;;;18.15;11.30;;;4.90;1.00;;;;;;5137779;27;20184;-67
2021/03/10 03:00:25;;;;;;;17.23;11.07;;;4.80;1.00;;;;;;5137689;27;20206;-64
2021/03/10 03:02:51;;;;;;;16.77;11.52;;;4.80;1.00;;;;;;5137456;27;20249;-66
2021/03/10 03:05:17;;;;;;;17.67;10.40;;;4.60;1.00;;;;;;5135992;27;20719;-65
2021/03/10 03:07:45;;;;;;;18.50;11.85;;;4.50;1.00;;;;;;5137892;27;20455;-63
2021/03/10 03:10:15;;;;;;;19.63;11.70;;;4.50;1.00;;;;;;5137912;27;20240;-65
2021/03/10 03:12:42;;;;;;;18.92;11.75;;;4.50;1.00;;;;;;5137734;27;20174;-64
2021/03/10 03:15:13;;;;;;;18.92;12.23;;;4.50;1.00;;;;;;5137565;27;20167;-63
2021/03/10 03:17:39;;;;;;;19.13;11.65;;;4.40;1.00;;;;;;5137336;27;20215;-66
2021/03/10 03:20:09;;;;;;;17.40;11.30;;;4.40;1.00;;;;;;5137765;27;20186;-66
2021/03/10 03:22:40;;;;;;;16.83;9.20;;;4.20;1.00;;;;;;5136600;27;20950;-65
2021/03/10 03:25:08;;;;;;;19.17;11.65;;;4.10;1.00;;;;;;5137771;27;20179;-62
2021/03/10 03:27:34;;;;;;;21.17;11.52;;;3.90;1.00;;;;;;5138550;27;20575;-65
2021/03/10 03:30:01;;;;;;;18.83;11.50;;;4.00;1.00;;;;;;5137556;27;20555;-64
2021/03/10 03:32:31;;;;;;;22.67;12.13;;;4.10;7.80;;;;;;5138617;27;20243;-64
2021/03/10 03:34:58;;;;;;;15.90;11.10;;;4.00;1.00;;;;;;5137729;27;20171;-65
2021/03/10 03:37:24;;;;;;;20.08;11.50;;;3.80;1.00;;;;;;5136767;27;20171;-63
2021/03/10 03:39:50;;;;;;;18.08;10.98;;;3.80;31.00;;;;;;5137709;27;20174;-63
2021/03/10 03:42:17;;;;;;;15.98;11.27;;;3.80;48.10;;;;;;5137700;27;20175;-66
2021/03/10 03:44:43;;;;;;;15.63;10.90;;;4.00;5.30;;;;;;5135814;27;20211;-64
2021/03/10 03:47:12;;;;;;;18.90;11.63;;;3.80;1.00;;;;;;5137516;27;20206;-63
2021/03/10 03:49:41;;;;;;;18.15;11.00;;;3.70;1.00;;;;;;5136375;27;20799;-62
2021/03/10 03:52:08;;;;;;;17.00;10.38;;;3.60;33.00;;;;;;5137701;27;20167;-67
2021/03/10 03:54:33;;;;;;;16.60;11.73;;;3.60;94.40;;;;;;5137434;27;20167;-66
2021/03/10 03:56:59;;;;;;;19.67;12.23;;;3.30;99.90;;;;;;5137641;27;20223;-65
2021/03/10 03:59:25;;;;;;;12.87;8.80;;;3.30;99.90;;;;;;5137218;27;20334;-63
2021/03/10 04:01:50;;;;;;;18.27;11.57;;;3.30;99.90;;;;;;5137424;27;20198;-62
2021/03/10 04:04:16;;;;;;;13.13;10.13;;;3.10;99.90;;;;;;5137031;27;20185;-61
2021/03/10 04:06:47;;;;;;;14.10;9.70;;;3.10;99.90;;;;;;5137264;27;20201;-66
2021/03/10 04:09:13;;;;;;;17.27;10.15;;;3.10;99.90;;;;;;5137008;27;20222;-64
2021/03/10 04:11:42;;;;;;;19.20;10.40;;;3.10;1.00;;;;;;5136575;27;20185;-66
2021/03/10 04:14:08;;;;;;;16.05;8.75;;;3.10;1.00;;;;;;5136086;27;20198;-66
2021/03/10 04:16:34;;;;;;;20.30;10.23;;;3.10;1.00;;;;;;5136231;27;20174;-66
2021/03/10 04:18:59;;;;;;;14.13;9.40;;;3.10;1.00;;;;;;5135015;27;20178;-67
2021/03/10 04:21:25;;;;;;;14.07;9.63;;;3.10;99.90;;;;;;5136251;27;20507;-65
2021/03/10 04:23:50;;;;;;;14.13;9.67;;;3.10;1.00;;;;;;5136445;27;20185;-63
2021/03/10 04:26:22;;;;;;;17.37;9.50;;;2.90;99.90;;;;;;5136951;27;20182;-63
2021/03/10 04:28:47;;;;;;;20.85;11.20;;;2.90;1.00;;;;;;5136493;27;20297;-64
2021/03/10 04:31:13;;;;;;;16.80;9.80;;;2.80;99.90;;;;;;5136191;27;20259;-63
2021/03/10 04:33:38;;;;;;;15.37;9.40;;;2.80;99.90;;;;;;5136961;27;20283;-65
2021/03/10 04:36:05;;;;;;;16.23;9.80;;;2.90;1.00;;;;;;5136978;27;20178;-64
2021/03/10 04:38:31;;;;;;;18.33;9.23;;;2.90;99.90;;;;;;5137556;27;20193;-66
2021/03/10 04:40:56;;;;;;;16.30;9.73;;;2.80;99.90;;;;;;5137301;27;20516;-64
2021/03/10 04:43:22;;;;;;;14.10;9.07;;;2.90;99.90;;;;;;5137420;27;20852;-66
2021/03/10 04:45:47;;;;;;;12.37;9.27;;;2.80;99.90;;;;;;5137176;27;20674;-67
2021/03/10 04:48:13;;;;;;;14.43;9.00;;;2.90;99.90;;;;;;5135673;28;20210;-67
2021/03/10 04:50:39;;;;;;;15.70;8.87;;;2.90;99.90;;;;;;5136492;28;20210;-64
2021/03/10 04:53:04;;;;;;;11.47;8.60;;;3.00;99.90;;;;;;5136069;28;20178;-63
2021/03/10 04:55:33;;;;;;;18.20;9.60;;;2.90;99.90;;;;;;5136796;28;20607;-61
2021/03/10 04:57:59;;;;;;;15.40;9.60;;;2.90;99.90;;;;;;5137009;28;20178;-65
2021/03/10 05:00:24;;;;;;;8.57;6.00;;;2.80;99.90;;;;;;5136714;28;20675;-63
2021/03/10 05:02:50;;;;;;;15.73;9.10;;;2.60;99.90;;;;;;5136868;28;20175;-63
2021/03/10 05:05:15;;;;;;;10.60;8.23;;;2.50;1.00;;;;;;5136795;28;20283;-66
2021/03/10 05:07:41;;;;;;;12.47;8.10;;;2.40;1.00;;;;;;5137073;28;20209;-63
2021/03/10 05:10:08;;;;;;;13.97;8.17;;;2.30;1.00;;;;;;5137146;28;20202;-64
2021/03/10 05:12:34;;;;;;;14.75;7.88;;;2.40;1.00;;;;;;5135563;28;20178;-64
2021/03/10 05:15:01;;;;;;;12.90;9.18;;;2.20;1.00;;;;;;5136719;28;20200;-65
2021/03/10 05:17:27;;;;;;;12.65;7.55;;;2.20;99.90;;;;;;5136565;27;20204;-63
2021/03/10 05:19:57;;;;;;;11.13;8.53;;;2.30;99.90;;;;;;5137060;27;20183;-63
2021/03/10 05:22:24;;;;;;;15.43;8.40;;;2.10;99.90;;;;;;5136301;27;20250;-63
2021/03/10 05:24:49;;;;;;;14.98;7.90;;;2.10;33.30;;;;;;5135582;27;20183;-64
2021/03/10 05:27:16;;;;;;;16.60;9.10;;;2.10;99.90;;;;;;5135868;28;20219;-66
2021/03/10 05:29:42;;;;;;;13.27;8.70;;;2.10;99.90;;;;;;5135475;28;20205;-65
2021/03/10 05:32:07;;;;;;;16.67;9.68;;;2.10;99.90;;;;;;5136494;27;20258;-63
2021/03/10 05:34:33;;;;;;;13.27;8.90;;;2.10;1.00;;;;;;5135833;28;20220;-66
2021/03/10 05:36:59;;;;;;;15.97;9.03;;;2.10;1.00;;;;;;5136134;28;20179;-67
2021/03/10 05:39:24;;;;;;;15.30;9.50;;;2.10;1.00;;;;;;5136795;28;20178;-64
2021/03/10 05:41:55;;;;;;;14.93;8.77;;;2.10;1.00;;;;;;5136465;28;20782;-64
2021/03/10 05:44:22;;;;;;;19.60;10.25;;;2.10;1.00;;;;;;5134714;28;20490;-64
2021/03/10 05:46:47;;;;;;;10.60;8.45;;;2.00;1.00;;;;;;5135831;28;20199;-62
2021/03/10 05:49:13;;;;;;;16.80;9.17;;;2.10;55.10;;;;;;5135747;28;20299;-62
2021/03/10 05:51:38;;;;;;;14.47;8.53;;;2.10;99.90;;;;;;5135676;28;20236;-62
2021/03/10 05:54:05;;;;;;;13.20;8.97;;;2.10;11.60;;;;;;5137256;27;20178;-66
2021/03/10 05:56:31;;;;;;;17.00;8.82;;;2.10;46.10;;;;;;5138681;27;20217;-64
2021/03/10 05:58:58;;;;;;;16.30;9.95;;;2.10;99.90;;;;;;5139142;27;20558;-64
2021/03/10 06:01:24;;;;;;;18.35;10.75;;;2.20;99.90;;;;;;5140047;27;20174;-64
2021/03/10 06:04:08;;;;;;;15.37;9.97;;;2.30;1.00;;;;;;5139943;27;20179;-65
2021/03/10 06:06:39;;;;;;;15.55;9.70;;;2.40;1.00;;;;;;5139646;27;20432;-63
2021/03/10 06:09:19;;;;;;;18.80;10.57;;;2.40;1.00;;;;;;5139873;27;20281;-63
2021/03/10 06:12:02;;;;;;;15.40;10.20;;;2.60;1.00;;;;;;5139100;27;20686;-66
2021/03/10 06:14:31;;;;;;;18.15;10.13;;;2.60;1.00;;;;;;5139349;27;20622;-64
2021/03/10 06:17:00;;;;;;;14.98;9.55;;;2.70;1.00;;;;;;5139319;27;20178;-65
2021/03/10 06:19:26;;;;;;;17.27;10.18;;;2.70;99.90;;;;;;5138400;27;20206;-63
2021/03/10 06:21:52;;;;;;;18.23;11.00;;;2.80;99.90;;;;;;5138779;27;20680;-64
2021/03/10 06:24:18;;;;;;;15.70;10.00;;;2.90;99.90;;;;;;5138648;27;20915;-63
2021/03/10 06:26:54;;;;;;;20.10;11.40;;;3.20;99.90;;;;;;5138578;27;20510;-63
2021/03/10 06:29:20;;;;;;;17.88;10.77;;;3.30;1.00;;;;;;5138606;27;20539;-64
2021/03/10 06:31:47;;;;;;;17.63;11.23;;;3.70;1.00;;;;;;5139411;27;20171;-64
2021/03/10 06:34:14;;;;;;;18.05;11.60;;;4.10;99.90;;;;;;5142682;27;20201;-66
2021/03/10 06:36:51;;;;;;;19.80;12.30;;;4.00;1.00;;;;;;5144766;27;20177;-65
2021/03/10 06:39:32;;;;;;;19.13;12.00;;;4.00;1.00;;;;;;5140007;27;20206;-65
2021/03/10 06:41:58;;;;;;;19.27;12.07;;;3.90;99.90;;;;;;5138369;27;20236;-64
2021/03/10 06:44:29;;;;;;;16.20;10.10;;;4.10;99.90;;;;;;5138384;27;20175;-65
2021/03/10 06:46:57;;;;;;;17.30;11.10;;;4.10;32.70;;;;;;5138971;27;20163;-63
2021/03/10 06:49:25;;;;;;;16.67;10.55;;;4.20;1.00;;;;;;5137416;27;20571;-63
2021/03/10 06:51:52;;;;;;;20.50;11.38;;;4.20;4.20;;;;;;5138426;27;20599;-67
2021/03/10 06:54:18;;;;;;;18.00;10.13;;;4.30;1.00;;;;;;5137122;27;20633;-65
2021/03/10 06:56:43;;;;;;;18.87;11.63;;;4.20;1.00;;;;;;5138344;27;20210;-63
2021/03/10 06:59:09;;;;;;;17.57;11.07;;;4.20;1.00;;;;;;5138518;27;20182;-64
2021/03/10 07:01:42;;;;;;;18.37;11.03;;;4.30;1.00;;;;;;5137033;27;20193;-66
2021/03/10 07:04:09;;;;;;;18.10;11.85;;;4.40;1.00;;;;;;5137392;27;20179;-71
2021/03/10 07:06:36;;;;;;;18.67;11.88;;;4.30;1.00;;;;;;5137305;27;20186;-65
2021/03/10 07:09:05;;;;;;;17.15;10.80;;;4.40;1.00;;;;;;5136464;27;20224;-63
2021/03/10 07:11:32;;;;;;;19.35;11.18;;;4.60;1.00;;;;;;5137167;27;20660;-66
2021/03/10 07:13:59;;;;;;;19.05;11.52;;;4.70;1.00;;;;;;5137545;27;20182;-64
2021/03/10 07:16:31;;;;;;;21.95;12.52;;;4.70;1.00;;;;;;5137430;27;20607;-65
2021/03/10 07:18:56;;;;;;;37.22;17.83;;;4.80;1.00;;;;;;5137144;27;20170;-66
2021/03/10 07:21:29;;;;;;;24.90;14.00;;;4.90;1.00;;;;;;5135696;27;20639;-66
2021/03/10 07:23:59;;;;;;;14.73;10.73;;;5.00;1.00;;;;;;5136643;27;20212;-62
2021/03/10 07:26:26;;;;;;;18.55;12.07;;;4.90;1.00;;;;;;5130312;27;20187;-65
2021/03/10 07:28:56;;;;;;;17.30;11.70;;;5.00;1.00;;;;;;5131174;27;20217;-66
2021/03/10 07:31:24;;;;;;;18.88;12.32;;;4.90;1.00;;;;;;5132100;27;20182;-64
2021/03/10 07:33:54;;;;;;;23.58;12.18;;;4.90;1.00;;;;;;5133408;27;20182;-65
2021/03/10 07:36:41;;;;;;;19.88;10.00;;;4.90;1.00;;;;;;5137255;27;20178;-66
2021/03/10 07:39:20;;;;;;;12.85;9.50;;;4.80;1.00;;;;;;5137687;27;20189;-63
2021/03/10 07:41:46;;;;;;;16.42;9.73;;;4.70;1.00;;;;;;5137375;27;20584;-67
2021/03/10 07:44:23;;;;;;;17.85;10.30;;;4.60;1.00;;;;;;5137165;27;20693;-65
2021/03/10 07:47:03;;;;;;;14.15;9.02;;;4.50;1.00;;;;;;5133060;27;20255;-65
2021/03/10 07:49:29;;;;;;;17.70;10.50;;;4.60;1.00;;;;;;5130077;27;20203;-65
2021/03/10 07:52:14;;;;;;;16.23;10.33;;;4.80;1.00;;;;;;5136535;27;20271;-63
2021/03/10 07:54:41;;;;;;;16.42;9.65;;;4.80;1.00;;;;;;5136531;27;20170;-64
2021/03/10 07:57:14;;;;;;;15.93;10.82;;;4.90;1.00;;;;;;5129730;27;20175;-67
2021/03/10 07:59:57;;;;;;;32.92;18.33;;;5.00;1.00;;;;;;5131289;27;20191;-69
2021/03/10 08:02:26;;;;;;;19.02;10.82;;;5.20;1.00;;;;;;5128532;27;20270;-71
2021/03/10 08:05:01;;;;;;;19.98;11.75;;;5.40;1.00;;;;;;5132372;27;20194;-71
2021/03/10 08:07:29;;;;;;;19.17;10.38;;;5.50;1.00;;;;;;5126192;27;20516;-68
2021/03/10 08:09:55;;;;;;;16.08;10.50;;;5.40;1.00;;;;;;5125131;27;20217;-67
2021/03/10 08:12:41;;;;;;;16.98;11.30;;;5.40;1.00;;;;;;5129068;27;20188;-65
2021/03/10 08:15:18;;;;;;;20.33;12.63;;;5.30;1.00;;;;;;5128755;27;20263;-68
2021/03/10 08:17:45;;;;;;;19.17;12.32;;;5.60;1.00;;;;;;5123887;27;20180;-73
2021/03/10 08:20:11;;;;;;;28.15;15.65;;;5.70;1.00;;;;;;5128280;27;20183;-68
2021/03/10 08:22:37;;;;;;;18.17;10.95;;;5.80;1.00;;;;;;5129741;27;20175;-72
2021/03/10 08:25:05;;;;;;;48.30;22.90;;;5.90;1.00;;;;;;5135076;27;20252;-64
2021/03/10 08:27:41;;;;;;;24.08;12.43;;;6.00;1.00;;;;;;5133931;27;20485;-65
2021/03/10 08:30:12;;;;;;;25.15;14.13;;;6.00;99.90;;;;;;5127961;27;20334;-70
2021/03/10 08:32:38;;;;;;;35.42;20.38;;;6.00;1.00;;;;;;5135902;27;20229;-65
2021/03/10 08:35:08;;;;;;;47.03;24.90;;;5.80;1.00;;;;;;5124445;27;20541;-66
2021/03/10 08:37:34;;;;;;;45.42;25.60;;;5.70;1.00;;;;;;5135526;27;20429;-63
2021/03/10 08:39:59;;;;;;;14.50;10.07;;;5.90;1.00;;;;;;5135532;27;20609;-69
2021/03/10 08:42:28;;;;;;;16.70;12.10;;;6.20;1.00;;;;;;5126500;27;20817;-71
2021/03/10 08:44:54;;;;;;;15.23;11.13;;;6.20;99.90;;;;;;5134975;27;20658;-67
2021/03/10 08:47:24;;;;;;;16.53;11.57;;;6.10;99.90;;;;;;5135682;27;20180;-66
2021/03/10 08:49:52;;;;;;;14.73;9.75;;;5.90;1.00;;;;;;5135354;27;20574;-64
2021/03/10 08:52:18;;;;;;;15.80;10.75;;;6.00;1.00;;;;;;5108672;28;20183;-65
2021/03/10 08:54:49;;;;;;;16.02;10.52;;;6.40;1.00;;;;;;5127666;28;20177;-62
2021/03/10 08:57:16;;;;;;;22.10;11.20;;;6.60;99.90;;;;;;5129848;28;20186;-65
2021/03/10 08:59:42;;;;;;;15.27;9.77;;;6.60;99.90;;;;;;5133884;28;20185;-67
2021/03/10 09:02:08;;;;;;;17.83;11.30;;;6.70;99.90;;;;;;5127250;28;20195;-65
2021/03/10 09:04:34;;;;;;;15.27;10.70;;;6.80;99.90;;;;;;5125485;28;20596;-64
2021/03/10 09:07:01;;;;;;;16.20;10.70;;;6.90;99.90;;;;;;5127890;28;20265;-63
2021/03/10 09:09:31;;;;;;;17.73;11.43;;;6.70;99.90;;;;;;5134434;27;20534;-65
2021/03/10 09:11:58;;;;;;;19.95;12.32;;;6.40;99.90;;;;;;5134874;27;20200;-66
2021/03/10 09:14:23;;;;;;;22.83;13.60;;;6.30;1.00;;;;;;5134526;27;20206;-68
2021/03/10 09:16:58;;;;;;;19.87;13.10;;;6.50;1.00;;;;;;5133577;28;20271;-69
2021/03/10 09:19:36;;;;;;;20.00;13.40;;;6.80;1.00;;;;;;5134578;27;20468;-67
2021/03/10 09:22:22;;;;;;;17.63;10.88;;;6.70;1.00;;;;;;5134390;27;20184;-68
2021/03/10 09:25:12;;;;;;;23.85;14.75;;;6.50;1.00;;;;;;5129173;28;20206;-64
2021/03/10 09:27:38;;;;;;;19.58;11.82;;;6.60;1.00;;;;;;5127609;27;20512;-65
2021/03/10 09:30:33;;;;;;;18.67;11.90;;;6.70;1.00;;;;;;5137383;27;20206;-64
2021/03/10 09:32:59;;;;;;;23.33;13.45;;;7.00;1.00;;;;;;5128704;27;20189;-68
2021/03/10 09:35:35;;;;;;;21.85;11.15;;;7.10;1.00;;;;;;5138178;27;20263;-66
2021/03/10 09:38:06;;;;;;;21.58;13.82;;;7.20;1.00;;;;;;5138920;27;20185;-64
2021/03/10 09:40:44;;;;;;;19.30;13.88;;;7.10;1.00;;;;;;5139848;27;20176;-66
2021/03/10 09:43:21;;;;;;;24.90;15.43;;;7.10;1.00;;;;;;5137185;27;20192;-69
2021/03/10 09:45:48;;;;;;;23.77;15.35;;;7.00;44.20;;;;;;5117170;28;20186;-67
2021/03/10 09:48:27;;;;;;;25.10;14.75;;;6.90;99.90;;;;;;5130057;27;20186;-63
2021/03/10 09:51:00;;;;;;;27.20;15.00;;;6.90;1.00;;;;;;5132727;27;20219;-66
2021/03/10 09:53:26;;;;;;;25.77;14.98;;;7.00;1.00;;;;;;5138140;27;20217;-67
2021/03/10 09:56:09;;;;;;;27.13;15.10;;;7.10;1.00;;;;;;5138504;27;20560;-66
2021/03/10 09:59:00;;;;;;;23.90;15.25;;;7.00;1.00;;;;;;5138219;27;20635;-69
2021/03/10 10:01:27;;;;;;;25.05;14.93;;;7.10;1.00;;;;;;5137847;27;20181;-64
2021/03/10 10:03:55;;;;;;;29.23;17.55;;;7.30;1.00;;;;;;5136990;27;20223;-67
2021/03/10 10:06:21;;;;;;;24.98;17.52;;;7.60;99.90;;;;;;5137345;27;20200;-65
2021/03/10 10:08:48;;;;;;;29.25;16.45;;;7.80;99.90;;;;;;5136497;27;20185;-65
2021/03/10 10:11:16;;;;;;;26.55;16.70;;;7.70;99.90;;;;;;5137200;27;20170;-66
2021/03/10 10:13:44;;;;;;;28.20;17.13;;;8.00;99.90;;;;;;5136577;27;20180;-65
2021/03/10 10:16:12;;;;;;;27.52;16.40;;;7.60;99.90;;;;;;5143001;27;20245;-67
2021/03/10 10:18:37;;;;;;;26.60;17.23;;;7.50;99.90;;;;;;5137084;27;20181;-65
2021/03/10 10:21:04;;;;;;;31.43;18.30;;;7.70;99.90;;;;;;5137267;27;20176;-67
2021/03/10 10:23:30;;;;;;;29.55;17.20;;;7.80;99.90;;;;;;5137026;27;20287;-66
2021/03/10 10:25:56;;;;;;;26.42;15.82;;;8.30;99.90;;;;;;5138261;27;20181;-68
2021/03/10 10:28:22;;;;;;;29.27;17.20;;;8.30;1.00;;;;;;5137296;27;20198;-65
2021/03/10 10:30:48;;;;;;;25.85;17.50;;;8.40;1.00;;;;;;5132769;27;20543;-66
2021/03/10 10:33:13;;;;;;;25.67;14.83;;;8.60;1.00;;;;;;5130602;27;20654;-67
2021/03/10 10:35:39;;;;;;;22.90;13.90;;;8.60;1.00;;;;;;5136718;27;20189;-65
2021/03/10 10:38:07;;;;;;;28.67;17.07;;;8.40;1.00;;;;;;5135758;27;20177;-67
2021/03/10 10:40:34;;;;;;;26.75;16.85;;;8.30;1.00;;;;;;5136656;27;20269;-63
2021/03/10 10:42:59;;;;;;;32.50;16.17;;;8.10;1.00;;;;;;5136579;27;20231;-67
2021/03/10 10:45:25;;;;;;;25.97;17.33;;;7.90;1.00;;;;;;5135274;27;20698;-69
2021/03/10 10:47:51;;;;;;;29.50;17.63;;;8.00;46.00;;;;;;5127042;27;20186;-67
2021/03/10 10:50:16;;;;;;;23.77;15.30;;;8.20;1.00;;;;;;5136149;27;20542;-63
2021/03/10 10:52:44;;;;;;;28.07;15.10;;;8.30;1.00;;;;;;5136987;27;20551;-64
2021/03/10 10:55:12;;;;;;;24.80;14.10;;;8.30;1.00;;;;;;5132870;27;20186;-66
2021/03/10 10:57:37;;;;;;;23.05;13.80;;;8.40;1.00;;;;;;5133671;27;20180;-68
2021/03/10 11:00:08;;;;;;;26.10;16.70;;;8.20;1.00;;;;;;5121732;27;20667;-67
2021/03/10 11:02:33;;;;;;;26.92;15.15;;;8.10;1.00;;;;;;5115844;28;20557;-64
2021/03/10 11:04:59;;;;;;;27.20;14.90;;;8.20;1.00;;;;;;5123339;27;20231;-67
2021/03/10 11:07:24;;;;;;;19.60;13.00;;;8.40;1.00;;;;;;5130366;27;20205;-64
2021/03/10 11:09:50;;;;;;;18.43;13.47;;;8.60;99.90;;;;;;5135949;27;20198;-67
2021/03/10 11:12:16;;;;;;;22.37;14.17;;;8.60;99.90;;;;;;5131838;27;20476;-70
2021/03/10 11:14:41;;;;;;;24.90;14.53;;;8.70;99.90;;;;;;5137953;27;20633;-70
2021/03/10 11:17:07;;;;;;;20.87;14.77;;;8.40;99.90;;;;;;5138112;27;20181;-71
2021/03/10 11:19:33;;;;;;;25.67;16.43;;;8.00;1.00;;;;;;5128686;27;20194;-70
2021/03/10 11:21:59;;;;;;;25.63;15.73;;;8.10;1.00;;;;;;5135774;27;20435;-65
2021/03/10 11:24:24;;;;;;;21.07;13.53;;;8.00;1.00;;;;;;5135251;27;20185;-66
2021/03/10 11:26:50;;;;;;;24.60;13.77;;;7.90;1.00;;;;;;5135777;27;20188;-65
2021/03/10 11:29:16;;;;;;;27.70;15.47;;;8.00;1.00;;;;;;5135103;27;20209;-69
2021/03/10 11:31:41;;;;;;;41.13;24.60;;;8.20;1.00;;;;;;5135851;27;20184;-67
2021/03/10 11:34:07;;;;;;;31.87;19.10;;;8.60;1.00;;;;;;5135788;27;20184;-64
2021/03/10 11:36:33;;;;;;;24.50;16.60;;;8.70;1.00;;;;;;5136016;27;20492;-66
2021/03/10 11:38:59;;;;;;;20.83;13.47;;;8.50;1.00;;;;;;5135997;27;20438;-70
2021/03/10 11:41:24;;;;;;;25.00;14.90;;;8.20;1.00;;;;;;5136214;27;20431;-67
2021/03/10 11:43:50;;;;;;;23.70;14.53;;;8.10;1.00;;;;;;5136286;27;20177;-66
2021/03/10 11:46:15;;;;;;;21.83;13.70;;;8.40;1.00;;;;;;5135677;27;20482;-65
2021/03/10 11:48:41;;;;;;;21.63;13.20;;;8.50;99.90;;;;;;5135652;27;20325;-66
2021/03/10 11:51:08;;;;;;;18.50;11.93;;;8.50;99.90;;;;;;5134916;27;20202;-66
2021/03/10 11:53:33;;;;;;;24.08;13.70;;;8.30;99.90;;;;;;5135487;27;20185;-67
2021/03/10 11:55:59;;;;;;;24.83;13.40;;;8.40;99.90;;;;;;5135777;27;20185;-63
2021/03/10 11:58:26;;;;;;;19.50;12.10;;;8.40;99.90;;;;;;5135836;27;20182;-66
2021/03/10 12:00:55;;;;;;;21.42;12.32;;;8.30;99.90;;;;;;5135420;27;20546;-65
2021/03/10 12:03:21;;;;;;;18.48;12.07;;;8.30;99.90;;;;;;5134877;27;20182;-65
2021/03/10 12:05:47;;;;;;;20.57;13.07;;;8.60;99.90;;;;;;5133825;27;20246;-66
2021/03/10 12:08:13;;;;;;;21.43;13.80;;;8.80;99.90;;;;;;5115819;27;20624;-69
2021/03/10 12:10:40;;;;;;;17.60;11.83;;;8.90;99.90;;;;;;5123460;27;20847;-67
2021/03/10 12:13:07;;;;;;;20.00;12.20;;;8.90;99.90;;;;;;5132806;27;20174;-68
2021/03/10 12:15:33;;;;;;;16.50;12.00;;;8.80;99.90;;;;;;5133810;27;20253;-69
2021/03/10 12:17:58;;;;;;;19.00;12.90;;;8.70;99.90;;;;;;5135068;27;20602;-67
2021/03/10 12:20:24;;;;;;;19.53;12.47;;;9.20;99.90;;;;;;5135446;27;20181;-68
2021/03/10 12:22:50;;;;;;;16.03;10.93;;;9.00;99.90;;;;;;5132783;27;20177;-67
2021/03/10 12:25:15;;;;;;;20.63;12.50;;;8.90;99.90;;;;;;5133530;27;20494;-69
2021/03/10 12:27:41;;;;;;;17.63;11.10;;;8.90;99.90;;;;;;5134035;27;20188;-68
2021/03/10 12:30:08;;;;;;;16.10;11.43;;;8.90;99.90;;;;;;5133637;27;20205;-68
2021/03/10 12:32:35;;;;;;;14.85;10.73;;;9.00;99.90;;;;;;5134189;27;20178;-68
2021/03/10 12:35:02;;;;;;;15.57;10.38;;;8.70;99.90;;;;;;5134627;27;20177;-68
2021/03/10 12:37:28;;;;;;;16.63;10.63;;;8.80;99.90;;;;;;5134919;27;20224;-68
2021/03/10 12:39:55;;;;;;;17.60;11.10;;;8.90;92.80;;;;;;5135270;27;20205;-69
2021/03/10 12:42:21;;;;;;;18.58;11.77;;;9.20;60.90;;;;;;5134838;27;20592;-68
2021/03/10 12:44:46;;;;;;;16.37;10.37;;;8.90;34.60;;;;;;5134498;27;20268;-66
2021/03/10 12:47:12;;;;;;;19.43;12.93;;;8.70;71.40;;;;;;5135189;27;20609;-64
2021/03/10 12:49:38;;;;;;;20.57;12.40;;;8.70;87.70;;;;;;5134738;27;20198;-65
2021/03/10 12:52:04;;;;;;;17.27;11.50;;;8.80;57.60;;;;;;5134650;27;20449;-69